sensor_id;sensor_type;location;lat;lon;timestamp;P1;durP1;ratioP1;P2;durP2;ratioP2
41456;SDS011;27197;51.752;5.220;2023-07-24T00:00:01;2.83;;;1.60;;
41456;SDS011;27197;51.752;5.220;2023-07-24T00:02:36;3.45;;;1.50;;
41456;SDS011;27197;51.752;5.220;2023-07-24T00:05:06;1.75;;;1.00;;
41456;SDS011;27197;51.752;5.220;2023-07-24T00:07:40;1.92;;;1.07;;
41456;SDS011;27197;51.752;5.220;2023-07-24T00:18:14;3.75;;;1.30;;
41456;SDS011;27197;51.752;5.220;2023-07-24T00:20:44;1.75;;;0.90;;
41456;SDS011;27197;51.752;5.220;2023-07-24T00:23:15;2.10;;;1.12;;
41456;SDS011;27197;51.752;5.220;2023-07-24T00:25:48;1.77;;;1.20;;
41456;SDS011;27197;51.752;5.220;2023-07-24T00:28:19;2.42;;;1.27;;
41456;SDS011;27197;51.752;5.220;2023-07-24T00:30:53;1.90;;;1.10;;
41456;SDS011;27197;51.752;5.220;2023-07-24T00:33:24;2.52;;;1.25;;
41456;SDS011;27197;51.752;5.220;2023-07-24T00:35:56;2.17;;;1.40;;
41456;SDS011;27197;51.752;5.220;2023-07-24T00:38:30;3.12;;;1.50;;
41456;SDS011;27197;51.752;5.220;2023-07-24T00:41:00;3.42;;;1.57;;
41456;SDS011;27197;51.752;5.220;2023-07-24T00:43:33;1.95;;;1.17;;
41456;SDS011;27197;51.752;5.220;2023-07-24T00:46:02;2.92;;;1.60;;
41456;SDS011;27197;51.752;5.220;2023-07-24T00:48:35;2.67;;;1.77;;
41456;SDS011;27197;51.752;5.220;2023-07-24T00:51:10;2.90;;;2.27;;
41456;SDS011;27197;51.752;5.220;2023-07-24T00:53:40;2.80;;;2.02;;
41456;SDS011;27197;51.752;5.220;2023-07-24T00:56:15;2.45;;;1.60;;
41456;SDS011;27197;51.752;5.220;2023-07-24T00:58:45;3.00;;;2.00;;
41456;SDS011;27197;51.752;5.220;2023-07-24T01:01:23;2.42;;;1.35;;
41456;SDS011;27197;51.752;5.220;2023-07-24T01:03:53;2.08;;;1.35;;
41456;SDS011;27197;51.752;5.220;2023-07-24T01:06:31;3.85;;;1.65;;
41456;SDS011;27197;51.752;5.220;2023-07-24T01:09:01;4.15;;;2.30;;
41456;SDS011;27197;51.752;5.220;2023-07-24T01:11:37;5.40;;;3.58;;
41456;SDS011;27197;51.752;5.220;2023-07-24T01:14:29;4.60;;;3.50;;
41456;SDS011;27197;51.752;5.220;2023-07-24T01:16:52;4.05;;;2.50;;
41456;SDS011;27197;51.752;5.220;2023-07-24T01:25:08;3.62;;;2.17;;
41456;SDS011;27197;51.752;5.220;2023-07-24T01:27:48;5.35;;;3.75;;
41456;SDS011;27197;51.752;5.220;2023-07-24T01:33:14;4.67;;;3.20;;
41456;SDS011;27197;51.752;5.220;2023-07-24T01:35:42;5.72;;;4.87;;
41456;SDS011;27197;51.752;5.220;2023-07-24T01:38:15;5.05;;;4.17;;
41456;SDS011;27197;51.752;5.220;2023-07-24T01:40:48;2.67;;;1.87;;
41456;SDS011;27197;51.752;5.220;2023-07-24T01:43:22;6.03;;;4.03;;
41456;SDS011;27197;51.752;5.220;2023-07-24T01:45:56;5.78;;;3.70;;
41456;SDS011;27197;51.752;5.220;2023-07-24T01:48:28;2.05;;;1.57;;
41456;SDS011;27197;51.752;5.220;2023-07-24T01:51:00;5.42;;;3.92;;
41456;SDS011;27197;51.752;5.220;2023-07-24T01:53:30;5.33;;;4.00;;
41456;SDS011;27197;51.752;5.220;2023-07-24T01:56:01;2.22;;;1.70;;
41456;SDS011;27197;51.752;5.220;2023-07-24T01:58:32;5.58;;;4.17;;
41456;SDS011;27197;51.752;5.220;2023-07-24T02:01:01;3.72;;;2.45;;
41456;SDS011;27197;51.752;5.220;2023-07-24T02:03:33;6.22;;;3.85;;
41456;SDS011;27197;51.752;5.220;2023-07-24T02:06:03;2.50;;;1.60;;
41456;SDS011;27197;51.752;5.220;2023-07-24T02:08:40;4.35;;;2.65;;
41456;SDS011;27197;51.752;5.220;2023-07-24T02:11:10;2.12;;;1.20;;
41456;SDS011;27197;51.752;5.220;2023-07-24T02:13:45;5.25;;;3.42;;
41456;SDS011;27197;51.752;5.220;2023-07-24T02:16:18;2.50;;;1.47;;
41456;SDS011;27197;51.752;5.220;2023-07-24T02:18:52;2.90;;;1.75;;
41456;SDS011;27197;51.752;5.220;2023-07-24T02:21:26;1.75;;;1.17;;
41456;SDS011;27197;51.752;5.220;2023-07-24T02:23:57;3.30;;;2.40;;
41456;SDS011;27197;51.752;5.220;2023-07-24T02:26:29;3.98;;;3.35;;
41456;SDS011;27197;51.752;5.220;2023-07-24T02:29:00;4.75;;;2.52;;
41456;SDS011;27197;51.752;5.220;2023-07-24T02:31:33;4.28;;;3.52;;
41456;SDS011;27197;51.752;5.220;2023-07-24T02:34:03;4.00;;;2.62;;
41456;SDS011;27197;51.752;5.220;2023-07-24T02:36:38;5.00;;;3.98;;
41456;SDS011;27197;51.752;5.220;2023-07-24T02:39:07;4.87;;;3.47;;
41456;SDS011;27197;51.752;5.220;2023-07-24T02:41:40;4.20;;;2.35;;
41456;SDS011;27197;51.752;5.220;2023-07-24T02:44:10;4.80;;;3.33;;
41456;SDS011;27197;51.752;5.220;2023-07-24T02:46:42;2.30;;;1.52;;
41456;SDS011;27197;51.752;5.220;2023-07-24T02:49:12;4.37;;;3.27;;
41456;SDS011;27197;51.752;5.220;2023-07-24T02:51:48;4.75;;;3.27;;
41456;SDS011;27197;51.752;5.220;2023-07-24T02:54:21;3.80;;;2.05;;
41456;SDS011;27197;51.752;5.220;2023-07-24T02:56:52;4.10;;;2.62;;
41456;SDS011;27197;51.752;5.220;2023-07-24T02:59:24;3.42;;;2.52;;
41456;SDS011;27197;51.752;5.220;2023-07-24T03:04:21;5.25;;;2.65;;
41456;SDS011;27197;51.752;5.220;2023-07-24T03:06:56;3.67;;;2.65;;
41456;SDS011;27197;51.752;5.220;2023-07-24T03:09:27;4.75;;;2.80;;
41456;SDS011;27197;51.752;5.220;2023-07-24T03:12:02;3.22;;;2.20;;
41456;SDS011;27197;51.752;5.220;2023-07-24T03:14:33;2.40;;;1.62;;
41456;SDS011;27197;51.752;5.220;2023-07-24T03:17:03;3.42;;;1.92;;
41456;SDS011;27197;51.752;5.220;2023-07-24T03:19:33;4.40;;;3.00;;
41456;SDS011;27197;51.752;5.220;2023-07-24T03:22:04;3.40;;;1.40;;
41456;SDS011;27197;51.752;5.220;2023-07-24T03:24:36;3.87;;;2.40;;
41456;SDS011;27197;51.752;5.220;2023-07-24T03:27:08;4.22;;;2.77;;
41456;SDS011;27197;51.752;5.220;2023-07-24T03:29:37;4.53;;;2.50;;
41456;SDS011;27197;51.752;5.220;2023-07-24T03:32:08;3.67;;;2.40;;
41456;SDS011;27197;51.752;5.220;2023-07-24T03:34:42;3.22;;;1.87;;
41456;SDS011;27197;51.752;5.220;2023-07-24T03:37:12;4.45;;;3.10;;
41456;SDS011;27197;51.752;5.220;2023-07-24T03:39:47;6.03;;;1.60;;
41456;SDS011;27197;51.752;5.220;2023-07-24T03:42:28;2.95;;;1.77;;
41456;SDS011;27197;51.752;5.220;2023-07-24T03:45:03;4.22;;;1.80;;
41456;SDS011;27197;51.752;5.220;2023-07-24T03:47:34;3.80;;;1.50;;
41456;SDS011;27197;51.752;5.220;2023-07-24T03:50:06;6.30;;;1.77;;
41456;SDS011;27197;51.752;5.220;2023-07-24T03:52:41;3.77;;;2.72;;
41456;SDS011;27197;51.752;5.220;2023-07-24T03:55:12;4.72;;;1.98;;
41456;SDS011;27197;51.752;5.220;2023-07-24T03:57:42;4.47;;;2.10;;
41456;SDS011;27197;51.752;5.220;2023-07-24T04:00:13;4.37;;;2.67;;
41456;SDS011;27197;51.752;5.220;2023-07-24T04:02:43;5.55;;;2.20;;
41456;SDS011;27197;51.752;5.220;2023-07-24T04:05:19;3.17;;;2.12;;
41456;SDS011;27197;51.752;5.220;2023-07-24T04:07:51;4.47;;;2.98;;
41456;SDS011;27197;51.752;5.220;2023-07-24T04:10:23;3.40;;;2.00;;
41456;SDS011;27197;51.752;5.220;2023-07-24T04:12:51;4.95;;;3.12;;
41456;SDS011;27197;51.752;5.220;2023-07-24T04:15:21;1.85;;;1.17;;
41456;SDS011;27197;51.752;5.220;2023-07-24T04:17:54;4.28;;;1.90;;
41456;SDS011;27197;51.752;5.220;2023-07-24T04:20:26;2.92;;;1.62;;
41456;SDS011;27197;51.752;5.220;2023-07-24T04:22:56;5.87;;;3.08;;
41456;SDS011;27197;51.752;5.220;2023-07-24T04:25:26;5.20;;;3.35;;
41456;SDS011;27197;51.752;5.220;2023-07-24T04:27:59;4.65;;;2.58;;
41456;SDS011;27197;51.752;5.220;2023-07-24T04:30:29;6.45;;;2.60;;
41456;SDS011;27197;51.752;5.220;2023-07-24T04:33:00;5.03;;;3.40;;
41456;SDS011;27197;51.752;5.220;2023-07-24T04:35:36;2.83;;;1.80;;
41456;SDS011;27197;51.752;5.220;2023-07-24T04:38:09;2.95;;;1.90;;
41456;SDS011;27197;51.752;5.220;2023-07-24T04:40:39;4.72;;;3.20;;
41456;SDS011;27197;51.752;5.220;2023-07-24T04:43:10;5.10;;;3.42;;
41456;SDS011;27197;51.752;5.220;2023-07-24T04:45:47;2.52;;;1.67;;
41456;SDS011;27197;51.752;5.220;2023-07-24T04:48:17;6.15;;;3.15;;
41456;SDS011;27197;51.752;5.220;2023-07-24T04:50:54;7.10;;;3.77;;
41456;SDS011;27197;51.752;5.220;2023-07-24T04:53:25;5.60;;;3.40;;
41456;SDS011;27197;51.752;5.220;2023-07-24T04:55:56;6.58;;;3.90;;
41456;SDS011;27197;51.752;5.220;2023-07-24T04:58:28;6.97;;;3.87;;
41456;SDS011;27197;51.752;5.220;2023-07-24T05:00:57;5.17;;;3.12;;
41456;SDS011;27197;51.752;5.220;2023-07-24T05:03:31;5.28;;;3.52;;
41456;SDS011;27197;51.752;5.220;2023-07-24T05:06:01;4.20;;;2.77;;
41456;SDS011;27197;51.752;5.220;2023-07-24T05:08:34;2.67;;;1.50;;
41456;SDS011;27197;51.752;5.220;2023-07-24T05:11:04;4.35;;;2.70;;
41456;SDS011;27197;51.752;5.220;2023-07-24T05:13:33;3.72;;;2.33;;
41456;SDS011;27197;51.752;5.220;2023-07-24T05:16:06;5.45;;;2.90;;
41456;SDS011;27197;51.752;5.220;2023-07-24T05:18:39;2.62;;;1.60;;
41456;SDS011;27197;51.752;5.220;2023-07-24T05:21:09;6.00;;;3.85;;
41456;SDS011;27197;51.752;5.220;2023-07-24T05:23:40;6.15;;;4.28;;
41456;SDS011;27197;51.752;5.220;2023-07-24T05:26:10;4.17;;;2.67;;
41456;SDS011;27197;51.752;5.220;2023-07-24T05:28:41;5.95;;;4.08;;
41456;SDS011;27197;51.752;5.220;2023-07-24T05:31:11;3.42;;;2.40;;
41456;SDS011;27197;51.752;5.220;2023-07-24T05:33:46;6.97;;;4.58;;
41456;SDS011;27197;51.752;5.220;2023-07-24T05:36:20;7.10;;;4.67;;
41456;SDS011;27197;51.752;5.220;2023-07-24T05:38:52;5.97;;;1.70;;
41456;SDS011;27197;51.752;5.220;2023-07-24T05:41:23;4.90;;;2.72;;
41456;SDS011;27197;51.752;5.220;2023-07-24T05:43:56;7.28;;;4.92;;
41456;SDS011;27197;51.752;5.220;2023-07-24T05:46:26;6.22;;;4.53;;
41456;SDS011;27197;51.752;5.220;2023-07-24T05:48:59;5.95;;;4.28;;
41456;SDS011;27197;51.752;5.220;2023-07-24T05:51:28;7.87;;;5.30;;
41456;SDS011;27197;51.752;5.220;2023-07-24T05:53:58;9.20;;;5.80;;
41456;SDS011;27197;51.752;5.220;2023-07-24T05:56:30;6.55;;;4.85;;
41456;SDS011;27197;51.752;5.220;2023-07-24T05:59:00;9.23;;;6.12;;
41456;SDS011;27197;51.752;5.220;2023-07-24T06:01:30;7.20;;;5.83;;
41456;SDS011;27197;51.752;5.220;2023-07-24T06:04:01;8.33;;;6.20;;
41456;SDS011;27197;51.752;5.220;2023-07-24T06:06:33;8.78;;;5.67;;
41456;SDS011;27197;51.752;5.220;2023-07-24T06:09:09;8.88;;;6.30;;
41456;SDS011;27197;51.752;5.220;2023-07-24T06:11:39;11.03;;;6.83;;
41456;SDS011;27197;51.752;5.220;2023-07-24T06:14:12;7.22;;;4.85;;
41456;SDS011;27197;51.752;5.220;2023-07-24T06:16:42;7.28;;;5.40;;
41456;SDS011;27197;51.752;5.220;2023-07-24T06:19:13;8.35;;;6.20;;
41456;SDS011;27197;51.752;5.220;2023-07-24T06:21:43;8.70;;;6.28;;
41456;SDS011;27197;51.752;5.220;2023-07-24T06:24:17;9.60;;;6.60;;
41456;SDS011;27197;51.752;5.220;2023-07-24T06:26:46;9.38;;;6.25;;
41456;SDS011;27197;51.752;5.220;2023-07-24T06:29:19;8.90;;;5.22;;
41456;SDS011;27197;51.752;5.220;2023-07-24T06:31:48;9.38;;;6.55;;
41456;SDS011;27197;51.752;5.220;2023-07-24T06:34:18;11.30;;;6.45;;
41456;SDS011;27197;51.752;5.220;2023-07-24T06:36:50;11.00;;;6.80;;
41456;SDS011;27197;51.752;5.220;2023-07-24T06:39:22;8.73;;;6.12;;
41456;SDS011;27197;51.752;5.220;2023-07-24T06:55:14;7.97;;;5.50;;
41456;SDS011;27197;51.752;5.220;2023-07-24T06:57:47;11.00;;;7.35;;
41456;SDS011;27197;51.752;5.220;2023-07-24T07:00:17;10.48;;;7.90;;
41456;SDS011;27197;51.752;5.220;2023-07-24T07:02:49;11.12;;;8.33;;
41456;SDS011;27197;51.752;5.220;2023-07-24T07:05:20;11.15;;;8.28;;
41456;SDS011;27197;51.752;5.220;2023-07-24T07:07:55;4.97;;;3.40;;
41456;SDS011;27197;51.752;5.220;2023-07-24T07:10:25;8.85;;;5.40;;
41456;SDS011;27197;51.752;5.220;2023-07-24T07:12:59;12.15;;;8.23;;
41456;SDS011;27197;51.752;5.220;2023-07-24T07:15:28;12.58;;;8.13;;
41456;SDS011;27197;51.752;5.220;2023-07-24T07:18:01;9.70;;;6.42;;
41456;SDS011;27197;51.752;5.220;2023-07-24T07:20:32;11.20;;;7.85;;
41456;SDS011;27197;51.752;5.220;2023-07-24T07:23:02;10.63;;;7.30;;
41456;SDS011;27197;51.752;5.220;2023-07-24T07:25:34;11.30;;;7.58;;
41456;SDS011;27197;51.752;5.220;2023-07-24T07:28:06;6.72;;;4.87;;
41456;SDS011;27197;51.752;5.220;2023-07-24T07:30:39;6.50;;;4.67;;
41456;SDS011;27197;51.752;5.220;2023-07-24T07:33:17;9.58;;;7.50;;
41456;SDS011;27197;51.752;5.220;2023-07-24T07:35:47;9.28;;;7.12;;
41456;SDS011;27197;51.752;5.220;2023-07-24T07:38:17;7.80;;;6.17;;
41456;SDS011;27197;51.752;5.220;2023-07-24T07:40:49;10.58;;;7.92;;
41456;SDS011;27197;51.752;5.220;2023-07-24T07:43:21;10.65;;;6.70;;
41456;SDS011;27197;51.752;5.220;2023-07-24T07:45:52;10.08;;;7.30;;
41456;SDS011;27197;51.752;5.220;2023-07-24T07:48:22;4.60;;;3.35;;
41456;SDS011;27197;51.752;5.220;2023-07-24T07:50:55;12.00;;;8.68;;
41456;SDS011;27197;51.752;5.220;2023-07-24T07:53:28;10.68;;;8.25;;
41456;SDS011;27197;51.752;5.220;2023-07-24T07:55:58;10.70;;;7.60;;
41456;SDS011;27197;51.752;5.220;2023-07-24T07:58:31;11.08;;;7.15;;
41456;SDS011;27197;51.752;5.220;2023-07-24T08:01:06;8.18;;;6.80;;
41456;SDS011;27197;51.752;5.220;2023-07-24T08:03:36;8.10;;;6.67;;
41456;SDS011;27197;51.752;5.220;2023-07-24T08:06:09;5.97;;;3.85;;
41456;SDS011;27197;51.752;5.220;2023-07-24T08:08:42;9.45;;;7.65;;
41456;SDS011;27197;51.752;5.220;2023-07-24T08:11:30;9.33;;;6.60;;
41456;SDS011;27197;51.752;5.220;2023-07-24T08:14:04;7.00;;;5.20;;
41456;SDS011;27197;51.752;5.220;2023-07-24T08:16:33;9.88;;;6.75;;
41456;SDS011;27197;51.752;5.220;2023-07-24T08:19:04;7.95;;;6.35;;
41456;SDS011;27197;51.752;5.220;2023-07-24T08:21:34;8.35;;;6.15;;
41456;SDS011;27197;51.752;5.220;2023-07-24T08:24:04;9.68;;;5.87;;
41456;SDS011;27197;51.752;5.220;2023-07-24T08:26:37;7.08;;;5.28;;
41456;SDS011;27197;51.752;5.220;2023-07-24T08:29:10;6.87;;;4.85;;
41456;SDS011;27197;51.752;5.220;2023-07-24T08:31:41;7.42;;;4.28;;
41456;SDS011;27197;51.752;5.220;2023-07-24T08:34:12;6.10;;;4.47;;
41456;SDS011;27197;51.752;5.220;2023-07-24T08:36:44;7.30;;;5.00;;
41456;SDS011;27197;51.752;5.220;2023-07-24T08:39:14;10.55;;;5.42;;
41456;SDS011;27197;51.752;5.220;2023-07-24T08:41:43;10.05;;;6.00;;
41456;SDS011;27197;51.752;5.220;2023-07-24T08:44:14;10.18;;;6.28;;
41456;SDS011;27197;51.752;5.220;2023-07-24T08:46:44;7.60;;;4.53;;
41456;SDS011;27197;51.752;5.220;2023-07-24T08:49:17;8.10;;;5.70;;
41456;SDS011;27197;51.752;5.220;2023-07-24T08:51:49;9.40;;;5.85;;
41456;SDS011;27197;51.752;5.220;2023-07-24T08:54:20;8.55;;;6.12;;
41456;SDS011;27197;51.752;5.220;2023-07-24T08:56:54;7.80;;;5.15;;
41456;SDS011;27197;51.752;5.220;2023-07-24T08:59:23;7.42;;;5.60;;
41456;SDS011;27197;51.752;5.220;2023-07-24T09:01:56;7.50;;;5.33;;
41456;SDS011;27197;51.752;5.220;2023-07-24T09:04:26;7.42;;;5.12;;
41456;SDS011;27197;51.752;5.220;2023-07-24T09:06:58;7.37;;;5.35;;
41456;SDS011;27197;51.752;5.220;2023-07-24T09:09:30;7.55;;;5.05;;
41456;SDS011;27197;51.752;5.220;2023-07-24T09:12:03;7.05;;;4.70;;
41456;SDS011;27197;51.752;5.220;2023-07-24T09:14:35;8.83;;;5.25;;
41456;SDS011;27197;51.752;5.220;2023-07-24T09:17:06;7.28;;;5.28;;
41456;SDS011;27197;51.752;5.220;2023-07-24T09:19:41;8.28;;;5.67;;
41456;SDS011;27197;51.752;5.220;2023-07-24T09:22:15;7.15;;;5.50;;
41456;SDS011;27197;51.752;5.220;2023-07-24T09:30:12;8.18;;;5.95;;
41456;SDS011;27197;51.752;5.220;2023-07-24T09:32:51;7.28;;;5.25;;
41456;SDS011;27197;51.752;5.220;2023-07-24T09:35:16;7.85;;;5.75;;
41456;SDS011;27197;51.752;5.220;2023-07-24T09:37:50;7.45;;;5.90;;
41456;SDS011;27197;51.752;5.220;2023-07-24T09:40:20;5.58;;;4.10;;
41456;SDS011;27197;51.752;5.220;2023-07-24T09:42:53;5.35;;;4.33;;
41456;SDS011;27197;51.752;5.220;2023-07-24T09:45:23;7.08;;;5.33;;
41456;SDS011;27197;51.752;5.220;2023-07-24T09:47:58;6.15;;;4.65;;
41456;SDS011;27197;51.752;5.220;2023-07-24T09:50:28;7.60;;;5.67;;
41456;SDS011;27197;51.752;5.220;2023-07-24T09:53:07;7.30;;;5.45;;
41456;SDS011;27197;51.752;5.220;2023-07-24T09:55:39;8.45;;;5.28;;
41456;SDS011;27197;51.752;5.220;2023-07-24T09:58:11;6.92;;;4.25;;
41456;SDS011;27197;51.752;5.220;2023-07-24T10:00:42;6.33;;;4.55;;
41456;SDS011;27197;51.752;5.220;2023-07-24T10:03:15;5.40;;;3.60;;
41456;SDS011;27197;51.752;5.220;2023-07-24T10:05:48;5.45;;;4.00;;
41456;SDS011;27197;51.752;5.220;2023-07-24T10:08:19;6.65;;;3.65;;
41456;SDS011;27197;51.752;5.220;2023-07-24T10:10:49;4.53;;;3.90;;
41456;SDS011;27197;51.752;5.220;2023-07-24T10:13:21;5.87;;;3.60;;
41456;SDS011;27197;51.752;5.220;2023-07-24T10:15:53;5.50;;;3.42;;
41456;SDS011;27197;51.752;5.220;2023-07-24T10:18:27;5.47;;;3.67;;
41456;SDS011;27197;51.752;5.220;2023-07-24T10:21:06;5.70;;;3.62;;
41456;SDS011;27197;51.752;5.220;2023-07-24T10:23:43;7.72;;;3.62;;
41456;SDS011;27197;51.752;5.220;2023-07-24T10:26:24;6.20;;;4.30;;
41456;SDS011;27197;51.752;5.220;2023-07-24T10:28:57;5.53;;;4.03;;
41456;SDS011;27197;51.752;5.220;2023-07-24T10:31:29;4.75;;;3.15;;
41456;SDS011;27197;51.752;5.220;2023-07-24T10:36:35;5.53;;;3.08;;
41456;SDS011;27197;51.752;5.220;2023-07-24T10:39:13;5.40;;;3.77;;
41456;SDS011;27197;51.752;5.220;2023-07-24T10:41:46;3.98;;;3.05;;
41456;SDS011;27197;51.752;5.220;2023-07-24T10:44:29;7.42;;;3.70;;
41456;SDS011;27197;51.752;5.220;2023-07-24T10:46:55;6.72;;;3.20;;
41456;SDS011;27197;51.752;5.220;2023-07-24T10:49:26;7.33;;;3.52;;
41456;SDS011;27197;51.752;5.220;2023-07-24T10:51:59;6.75;;;3.85;;
41456;SDS011;27197;51.752;5.220;2023-07-24T10:54:31;6.03;;;3.55;;
41456;SDS011;27197;51.752;5.220;2023-07-24T10:57:01;8.98;;;3.42;;
41456;SDS011;27197;51.752;5.220;2023-07-24T10:59:37;6.80;;;3.70;;
41456;SDS011;27197;51.752;5.220;2023-07-24T11:02:07;6.17;;;3.40;;
41456;SDS011;27197;51.752;5.220;2023-07-24T11:04:42;6.17;;;3.02;;
41456;SDS011;27197;51.752;5.220;2023-07-24T11:07:12;5.30;;;3.30;;
41456;SDS011;27197;51.752;5.220;2023-07-24T11:09:44;6.50;;;4.03;;
41456;SDS011;27197;51.752;5.220;2023-07-24T11:12:14;4.62;;;3.10;;
41456;SDS011;27197;51.752;5.220;2023-07-24T11:14:52;6.12;;;4.05;;
41456;SDS011;27197;51.752;5.220;2023-07-24T11:17:22;6.35;;;3.98;;
41456;SDS011;27197;51.752;5.220;2023-07-24T11:20:10;5.65;;;3.27;;
41456;SDS011;27197;51.752;5.220;2023-07-24T11:22:45;6.90;;;4.37;;
41456;SDS011;27197;51.752;5.220;2023-07-24T11:25:16;7.35;;;4.30;;
41456;SDS011;27197;51.752;5.220;2023-07-24T11:27:50;7.72;;;3.80;;
41456;SDS011;27197;51.752;5.220;2023-07-24T11:30:23;7.45;;;4.33;;
41456;SDS011;27197;51.752;5.220;2023-07-24T11:32:59;7.20;;;3.98;;
41456;SDS011;27197;51.752;5.220;2023-07-24T11:35:36;5.92;;;3.47;;
41456;SDS011;27197;51.752;5.220;2023-07-24T11:38:05;4.92;;;2.70;;
41456;SDS011;27197;51.752;5.220;2023-07-24T11:40:43;4.78;;;3.22;;
41456;SDS011;27197;51.752;5.220;2023-07-24T11:43:22;7.65;;;4.72;;
41456;SDS011;27197;51.752;5.220;2023-07-24T11:45:52;5.87;;;3.37;;
41456;SDS011;27197;51.752;5.220;2023-07-24T12:05:05;5.62;;;4.03;;
41456;SDS011;27197;51.752;5.220;2023-07-24T12:07:35;6.35;;;4.35;;
41456;SDS011;27197;51.752;5.220;2023-07-24T12:10:08;4.72;;;3.40;;
41456;SDS011;27197;51.752;5.220;2023-07-24T12:12:46;7.42;;;4.42;;
41456;SDS011;27197;51.752;5.220;2023-07-24T12:15:15;5.92;;;3.40;;
41456;SDS011;27197;51.752;5.220;2023-07-24T12:17:47;7.53;;;5.40;;
41456;SDS011;27197;51.752;5.220;2023-07-24T12:20:22;4.17;;;2.80;;
41456;SDS011;27197;51.752;5.220;2023-07-24T12:22:54;6.92;;;4.67;;
41456;SDS011;27197;51.752;5.220;2023-07-24T12:25:27;7.55;;;5.25;;
41456;SDS011;27197;51.752;5.220;2023-07-24T12:27:59;8.48;;;6.62;;
41456;SDS011;27197;51.752;5.220;2023-07-24T12:30:34;5.58;;;3.47;;
41456;SDS011;27197;51.752;5.220;2023-07-24T12:33:05;6.17;;;3.72;;
41456;SDS011;27197;51.752;5.220;2023-07-24T12:35:38;8.13;;;4.95;;
41456;SDS011;27197;51.752;5.220;2023-07-24T12:38:08;8.23;;;5.78;;
41456;SDS011;27197;51.752;5.220;2023-07-24T12:40:38;8.13;;;4.50;;
41456;SDS011;27197;51.752;5.220;2023-07-24T12:43:09;7.25;;;4.40;;
41456;SDS011;27197;51.752;5.220;2023-07-24T12:45:41;8.08;;;4.45;;
41456;SDS011;27197;51.752;5.220;2023-07-24T12:48:11;9.45;;;4.42;;
41456;SDS011;27197;51.752;5.220;2023-07-24T12:50:43;7.60;;;4.72;;
41456;SDS011;27197;51.752;5.220;2023-07-24T12:53:15;4.15;;;3.00;;
41456;SDS011;27197;51.752;5.220;2023-07-24T12:55:47;4.65;;;3.45;;
41456;SDS011;27197;51.752;5.220;2023-07-24T12:58:22;7.30;;;5.03;;
41456;SDS011;27197;51.752;5.220;2023-07-24T13:00:52;7.80;;;5.08;;
41456;SDS011;27197;51.752;5.220;2023-07-24T13:03:26;8.73;;;4.97;;
41456;SDS011;27197;51.752;5.220;2023-07-24T13:05:56;7.15;;;4.83;;
41456;SDS011;27197;51.752;5.220;2023-07-24T13:19:08;8.55;;;4.25;;
41456;SDS011;27197;51.752;5.220;2023-07-24T13:21:39;6.58;;;4.30;;
41456;SDS011;27197;51.752;5.220;2023-07-24T13:24:11;9.55;;;5.30;;
41456;SDS011;27197;51.752;5.220;2023-07-24T13:26:43;5.65;;;3.40;;
41456;SDS011;27197;51.752;5.220;2023-07-24T13:29:15;10.03;;;5.12;;
41456;SDS011;27197;51.752;5.220;2023-07-24T13:31:46;8.15;;;4.97;;
41456;SDS011;27197;51.752;5.220;2023-07-24T13:34:19;9.68;;;4.30;;
41456;SDS011;27197;51.752;5.220;2023-07-24T13:36:51;8.38;;;4.78;;
41456;SDS011;27197;51.752;5.220;2023-07-24T13:39:22;8.05;;;5.10;;
41456;SDS011;27197;51.752;5.220;2023-07-24T13:41:52;8.15;;;3.98;;
41456;SDS011;27197;51.752;5.220;2023-07-24T13:44:22;8.35;;;4.70;;
41456;SDS011;27197;51.752;5.220;2023-07-24T13:46:52;6.15;;;3.55;;
41456;SDS011;27197;51.752;5.220;2023-07-24T13:49:25;7.30;;;4.20;;
41456;SDS011;27197;51.752;5.220;2023-07-24T13:51:55;7.80;;;4.50;;
41456;SDS011;27197;51.752;5.220;2023-07-24T13:54:29;6.78;;;4.10;;
41456;SDS011;27197;51.752;5.220;2023-07-24T13:57:00;5.70;;;3.20;;
41456;SDS011;27197;51.752;5.220;2023-07-24T13:59:33;9.68;;;3.50;;
41456;SDS011;27197;51.752;5.220;2023-07-24T14:02:07;5.28;;;2.87;;
41456;SDS011;27197;51.752;5.220;2023-07-24T14:04:42;6.45;;;3.40;;
41456;SDS011;27197;51.752;5.220;2023-07-24T14:07:16;8.20;;;3.47;;
41456;SDS011;27197;51.752;5.220;2023-07-24T14:09:47;7.10;;;3.47;;
41456;SDS011;27197;51.752;5.220;2023-07-24T14:12:17;6.97;;;3.10;;
41456;SDS011;27197;51.752;5.220;2023-07-24T14:14:48;6.22;;;3.98;;
41456;SDS011;27197;51.752;5.220;2023-07-24T14:17:19;7.50;;;3.80;;
41456;SDS011;27197;51.752;5.220;2023-07-24T14:19:53;5.65;;;3.47;;
41456;SDS011;27197;51.752;5.220;2023-07-24T14:22:21;7.78;;;4.28;;
41456;SDS011;27197;51.752;5.220;2023-07-24T14:24:54;9.90;;;5.20;;
41456;SDS011;27197;51.752;5.220;2023-07-24T14:27:25;9.63;;;5.65;;
41456;SDS011;27197;51.752;5.220;2023-07-24T14:29:58;11.20;;;5.83;;
41456;SDS011;27197;51.752;5.220;2023-07-24T14:32:28;11.33;;;6.60;;
41456;SDS011;27197;51.752;5.220;2023-07-24T14:34:58;7.92;;;4.47;;
41456;SDS011;27197;51.752;5.220;2023-07-24T14:37:29;14.43;;;7.28;;
41456;SDS011;27197;51.752;5.220;2023-07-24T14:40:02;20.17;;;8.93;;
41456;SDS011;27197;51.752;5.220;2023-07-24T14:42:32;24.07;;;12.33;;
41456;SDS011;27197;51.752;5.220;2023-07-24T14:45:04;25.12;;;12.60;;
41456;SDS011;27197;51.752;5.220;2023-07-24T14:47:34;34.83;;;18.05;;
41456;SDS011;27197;51.752;5.220;2023-07-24T14:50:06;39.42;;;19.57;;
41456;SDS011;27197;51.752;5.220;2023-07-24T14:52:36;42.35;;;21.30;;
41456;SDS011;27197;51.752;5.220;2023-07-24T14:55:10;46.37;;;23.35;;
41456;SDS011;27197;51.752;5.220;2023-07-24T14:57:40;59.05;;;27.07;;
41456;SDS011;27197;51.752;5.220;2023-07-24T15:00:12;57.88;;;28.73;;
41456;SDS011;27197;51.752;5.220;2023-07-24T15:10:48;20.75;;;11.08;;
41456;SDS011;27197;51.752;5.220;2023-07-24T15:15:42;6.45;;;3.08;;
41456;SDS011;27197;51.752;5.220;2023-07-24T15:18:13;6.20;;;2.92;;
41456;SDS011;27197;51.752;5.220;2023-07-24T15:20:43;8.23;;;2.95;;
41456;SDS011;27197;51.752;5.220;2023-07-24T15:23:17;29.18;;;13.95;;
41456;SDS011;27197;51.752;5.220;2023-07-24T15:25:47;12.37;;;5.25;;
41456;SDS011;27197;51.752;5.220;2023-07-24T15:28:18;41.48;;;19.40;;
41456;SDS011;27197;51.752;5.220;2023-07-24T15:30:52;5.97;;;3.00;;
41456;SDS011;27197;51.752;5.220;2023-07-24T15:33:27;11.63;;;6.30;;
41456;SDS011;27197;51.752;5.220;2023-07-24T15:35:57;35.83;;;18.35;;
41456;SDS011;27197;51.752;5.220;2023-07-24T15:38:27;6.53;;;3.25;;
41456;SDS011;27197;51.752;5.220;2023-07-24T15:40:57;19.62;;;7.62;;
41456;SDS011;27197;51.752;5.220;2023-07-24T15:43:28;14.00;;;6.83;;
41456;SDS011;27197;51.752;5.220;2023-07-24T15:45:57;8.58;;;4.35;;
41456;SDS011;27197;51.752;5.220;2023-07-24T15:48:29;20.57;;;8.98;;
41456;SDS011;27197;51.752;5.220;2023-07-24T15:51:03;32.15;;;15.98;;
41456;SDS011;27197;51.752;5.220;2023-07-24T15:53:36;27.37;;;15.53;;
41456;SDS011;27197;51.752;5.220;2023-07-24T15:56:08;26.97;;;14.20;;
41456;SDS011;27197;51.752;5.220;2023-07-24T15:58:41;33.33;;;16.85;;
41456;SDS011;27197;51.752;5.220;2023-07-24T16:01:10;32.13;;;15.63;;
41456;SDS011;27197;51.752;5.220;2023-07-24T16:03:45;22.85;;;11.28;;
41456;SDS011;27197;51.752;5.220;2023-07-24T16:06:14;32.75;;;16.27;;
41456;SDS011;27197;51.752;5.220;2023-07-24T16:08:44;27.32;;;15.18;;
41456;SDS011;27197;51.752;5.220;2023-07-24T16:11:19;32.60;;;15.13;;
41456;SDS011;27197;51.752;5.220;2023-07-24T16:13:49;34.15;;;17.23;;
41456;SDS011;27197;51.752;5.220;2023-07-24T16:16:19;30.25;;;15.72;;
41456;SDS011;27197;51.752;5.220;2023-07-24T16:19:32;34.33;;;16.70;;
41456;SDS011;27197;51.752;5.220;2023-07-24T16:21:41;37.42;;;18.07;;
41456;SDS011;27197;51.752;5.220;2023-07-24T16:24:16;39.40;;;18.35;;
41456;SDS011;27197;51.752;5.220;2023-07-24T16:26:46;38.00;;;18.25;;
41456;SDS011;27197;51.752;5.220;2023-07-24T16:29:18;38.38;;;19.00;;
41456;SDS011;27197;51.752;5.220;2023-07-24T16:31:48;41.02;;;19.73;;